This is the latest recevied weather packets stored in our database for station/object N3TJJ-2. If no packets are shown the sender has not sent any weather packets the latest 1 day(s).
| Time | Temp. | Humidity | Pressure | Rain* | Wind** | Luminosity | Snow |
|---|---|---|---|---|---|---|---|
| 1836274756 | 20° C | 68% | 1020.4 hPa | 0 mm | 0.89 m/s, 282° | - | - |
| 1836274413 | 20.56° C | 68% | 1020.3 hPa | 0 mm | 0.89 m/s, 292° | - | - |
| 1836274377 | 20° C | 68% | 1020.5 hPa | 0 mm | 0.89 m/s, 276° | - | - |
| 1836274042 | 20.56° C | 68% | 1020.3 hPa | 0 mm | 0.89 m/s, 290° | - | - |
| 1778032820 | 20° C | 60% | 1010.7 hPa | 0 mm | 2.68 m/s, 22° | - | - |
| 1778032398 | 20° C | 59% | 1010.6 hPa | 0 mm | 2.24 m/s, 35° | - | - |
| 1778032037 | 20° C | 59% | 1010.6 hPa | 0 mm | 1.34 m/s, 28° | - | - |
| 1778031676 | 20.56° C | 58% | 1010.5 hPa | 0 mm | 2.68 m/s, 25° | - | - |
| 1778031327 | 20.56° C | 58% | 1010.4 hPa | 0 mm | 2.24 m/s, 28° | - | - |
| 1778030965 | 20.56° C | 58% | 1010.4 hPa | 0 mm | 1.79 m/s, 29° | - | - |
| 1778030597 | 20.56° C | 57% | 1010.4 hPa | 0 mm | 2.24 m/s, 36° | - | - |
| 1778030237 | 20.56° C | 57% | 1010.3 hPa | 0 mm | 1.79 m/s, 33° | - | - |
| 1778029877 | 21.11° C | 56% | 1010.2 hPa | 0 mm | 2.24 m/s, 30° | - | - |
| 1778029521 | 21.11° C | 55% | 1010.1 hPa | 0 mm | 2.68 m/s, 20° | - | - |
| 1778029156 | 21.11° C | 54% | 1010.1 hPa | 0 mm | 2.24 m/s, 33° | - | - |
| 1778028796 | 21.67° C | 54% | 1009.9 hPa | 0 mm | 2.24 m/s, 35° | - | - |
| 1778028435 | 21.67° C | 53% | 1009.9 hPa | 0 mm | 2.24 m/s, 22° | - | - |
| 1778028106 | 21.67° C | 52% | 1009.8 hPa | 0 mm | 2.24 m/s, 21° | - | - |
| 1778027721 | 22.22° C | 50% | 1009.7 hPa | 0 mm | 2.24 m/s, 26° | - | - |
| 1778027355 | 22.78° C | 49% | 1009.7 hPa | 0 mm | 2.24 m/s, 30° | - | - |
| 1778026996 | 22.78° C | 48% | 1009.7 hPa | 0 mm | 2.24 m/s, 39° | - | - |
| 1778026641 | 22.78° C | 47% | 1009.6 hPa | 0 mm | 4.02 m/s, 41° | - | - |
| 1778026276 | 23.33° C | 47% | 1009.6 hPa | 0 mm | 3.13 m/s, 34° | - | - |
| 1778025920 | 23.33° C | 47% | 1009.6 hPa | 0 mm | 2.24 m/s, 26° | - | - |
| 1778025556 | 23.33° C | 46% | 1009.6 hPa | 0 mm | 3.13 m/s, 32° | - | - |
* Rain latest hour (hover to see other rain measurements)
** Current wind speed in m/s (hover to see current wind gust speed)